Capitol Logistics 7339

Operating for MZN



KILN
Wilmington Air Park
Wilmington, Ohio
KIAH
George Bush Intcntl/Houston Airport
Houston, Texas

Activity Log

Date Flight Route Aircraft Duration
No Flights Yet

Route Details

Aircraft Information
Primary: Boeing 737-800BCF
Backup: Boeing 757-200SF
Route Data
Distance: 804nm
Duration: 2h 14m
Recm'd Route: FLM BNA SQS AEX GESNR1
Origin Wx: KILN 180154Z AUTO 24004KT 10SM CLR 09/05 A2991 RMK AO2 SLP139 T00890050
Dest. Wx: KIAH 180153Z 36014KT 10SM FEW025 BKN110 BKN180 15/09 A3004 RMK AO2 LTG DSNT NE SLP172 ACC NW-N T01500094
Notes: